Time;durP1;ratioP1;P1;durP2;ratioP2;P2;SDS_P1;SDS_P2;PMS_P1;PMS_P2;Temp;Humidity;BMP_temperature;BMP_pressure;BME280_temperature;BME280_humidity;BME280_pressure;Samples;Min_cycle;Max_cycle;Signal;HPM_P1;HPM_P2
2022/01/19 00:01:09;;;;;;;1999.90;999.90;;;;;;;0.61;60.83;102906.13;4831052;28;100356;-70
2022/01/19 00:03:37;;;;;;;1999.90;999.90;;;;;;;0.58;60.33;102902.28;4843081;28;97624;-70
2022/01/19 00:06:06;;;;;;;1999.90;999.90;;;;;;;0.56;60.71;102907.38;4845662;28;97665;-70
2022/01/19 00:08:33;;;;;;;1999.90;999.90;;;;;;;0.53;60.79;102903.56;4831987;28;97944;-69
2022/01/19 00:11:01;;;;;;;1999.90;999.90;;;;;;;0.52;60.45;102901.72;4855973;28;99499;-70
2022/01/19 00:13:30;;;;;;;1999.90;999.90;;;;;;;0.49;60.60;102904.03;4841767;28;98344;-69
2022/01/19 00:15:58;;;;;;;1999.90;999.90;;;;;;;0.44;60.54;102900.06;4842799;28;99007;-69
2022/01/19 00:18:26;;;;;;;1999.90;999.90;;;;;;;0.40;61.10;102897.94;4846277;28;99124;-69
2022/01/19 00:20:55;;;;;;;1999.90;999.90;;;;;;;0.39;60.62;102896.09;4842510;28;98121;-69
2022/01/19 00:23:23;;;;;;;1999.90;999.90;;;;;;;0.36;60.79;102890.59;4843598;28;99678;-70
2022/01/19 00:25:53;;;;;;;1999.90;999.90;;;;;;;0.34;61.12;102882.53;4830766;28;97972;-69
2022/01/19 00:28:21;;;;;;;1999.90;999.90;;;;;;;0.32;60.72;102871.00;4844043;28;96799;-70
2022/01/19 00:30:50;;;;;;;1999.90;999.90;;;;;;;0.31;61.06;102857.78;4843604;28;98989;-69
2022/01/19 00:33:19;;;;;;;1999.90;999.90;;;;;;;0.29;60.58;102862.88;4838402;29;97753;-69
2022/01/19 00:35:47;;;;;;;1999.90;999.90;;;;;;;0.27;60.68;102863.47;4818671;28;97428;-69
2022/01/19 00:38:15;;;;;;;1999.90;999.90;;;;;;;0.23;61.08;102859.63;4839335;28;98725;-70
2022/01/19 00:40:43;;;;;;;1999.90;999.90;;;;;;;0.21;61.05;102858.59;4844103;28;98651;-68
2022/01/19 00:43:14;;;;;;;1999.90;999.90;;;;;;;0.19;60.68;102853.16;4854780;28;98882;-69
2022/01/19 00:45:42;;;;;;;1999.90;999.90;;;;;;;0.17;60.76;102857.34;4839525;28;96896;-69
2022/01/19 00:48:26;;;;;;;1999.90;999.90;;;;;;;0.16;61.24;102851.97;4821294;28;98423;-69
2022/01/19 00:50:54;;;;;;;1999.90;999.90;;;;;;;0.14;61.00;102846.59;4853692;28;98789;-71
2022/01/19 00:53:22;;;;;;;1999.90;999.90;;;;;;;0.10;61.22;102843.53;4857970;28;97588;-70
2022/01/19 00:55:50;;;;;;;1999.90;999.90;;;;;;;0.08;61.13;102839.84;4850270;28;98285;-70
2022/01/19 00:58:20;;;;;;;1999.90;999.90;;;;;;;0.06;61.29;102831.84;4839958;28;98616;-69
2022/01/19 01:00:48;;;;;;;1999.90;999.90;;;;;;;-0.01;60.93;102828.50;4841194;28;98942;-69
2022/01/19 01:03:16;;;;;;;1999.90;999.90;;;;;;;-0.02;60.98;102821.41;4832732;28;99896;-71
2022/01/19 01:05:46;;;;;;;1999.90;999.90;;;;;;;-0.07;60.99;102831.47;4842371;28;97105;-71
2022/01/19 01:08:14;;;;;;;1999.90;999.90;;;;;;;-0.09;61.41;102830.38;4842052;28;98232;-70
2022/01/19 01:10:43;;;;;;;1999.90;999.90;;;;;;;-0.12;61.20;102831.78;4831495;28;102314;-67
2022/01/19 01:13:29;;;;;;;1999.90;999.90;;;;;;;-0.17;61.32;102828.72;4843226;28;97240;-68
2022/01/19 01:16:03;;;;;;;1999.90;999.90;;;;;;;-0.22;61.34;102826.44;4831780;28;97682;-69
2022/01/19 01:18:32;;;;;;;1999.90;999.90;;;;;;;-0.22;61.32;102827.34;4815944;29;97261;-70
2022/01/19 01:21:04;;;;;;;1999.90;999.90;;;;;;;-0.24;61.54;102831.50;4848090;28;96979;-70
2022/01/19 01:23:35;;;;;;;1999.90;999.90;;;;;;;-0.25;61.73;102816.59;4831327;28;101082;-68
2022/01/19 01:26:07;;;;;;;1999.90;999.90;;;;;;;-0.23;61.39;102811.50;4856811;28;96961;-69
2022/01/19 01:28:34;;;;;;;1999.90;999.90;;;;;;;-0.22;61.26;102806.44;4843042;28;97921;-70
2022/01/19 01:31:03;;;;;;;1999.90;999.90;;;;;;;-0.21;61.19;102805.63;4838820;28;99180;-69
2022/01/19 01:33:32;;;;;;;1999.90;999.90;;;;;;;-0.21;61.25;102789.03;4845423;28;99235;-69
2022/01/19 01:36:00;;;;;;;1999.90;999.90;;;;;;;-0.21;61.23;102784.72;4846183;28;97974;-69
2022/01/19 01:38:30;;;;;;;1999.90;999.90;;;;;;;-0.22;61.16;102779.34;4819622;28;97916;-68
2022/01/19 01:41:13;;;;;;;1999.90;999.90;;;;;;;-0.24;61.44;102776.56;4840291;28;97445;-70
2022/01/19 01:43:45;;;;;;;1999.90;999.90;;;;;;;-0.26;61.12;102759.81;4856425;28;97791;-70
2022/01/19 01:46:18;;;;;;;1999.90;999.90;;;;;;;-0.28;61.12;102753.50;4840461;28;98648;-70
2022/01/19 01:48:47;;;;;;;1999.90;999.90;;;;;;;-0.31;61.18;102741.84;4825358;29;97326;-70
2022/01/19 01:54:07;;;;;;;1999.90;999.90;;;;;;;-0.41;61.38;102719.09;4857745;28;97965;-69
2022/01/19 01:56:34;;;;;;;1999.90;999.90;;;;;;;-0.43;61.48;102719.75;4852121;28;97737;-69
2022/01/19 01:59:05;;;;;;;1999.90;999.90;;;;;;;-0.42;61.27;102734.66;4824842;29;97923;-70
2022/01/19 02:02:12;;;;;;;1999.90;999.90;;;;;;;-0.45;61.47;102740.53;4840822;28;98929;-70
2022/01/19 02:04:41;;;;;;;1999.90;999.90;;;;;;;-0.48;61.56;102737.59;4830264;28;98947;-69
2022/01/19 02:10:16;;;;;;;1999.90;999.90;;;;;;;-0.58;61.50;102744.41;4827517;28;98260;-70
2022/01/19 02:23:58;;;;;;;1999.90;999.90;;;;;;;-0.63;61.34;102709.06;4818558;29;99325;-71
2022/01/19 02:26:33;;;;;;;1999.90;999.90;;;;;;;-0.68;61.53;102685.09;4841672;28;98202;-70
2022/01/19 02:29:08;;;;;;;1999.90;999.90;;;;;;;-0.67;61.43;102693.84;4834170;28;97873;-68
2022/01/19 02:31:55;;;;;;;1999.90;999.90;;;;;;;-0.73;61.72;102681.13;4849607;28;98255;-70
2022/01/19 02:40:15;;;;;;;1999.90;999.90;;;;;;;-0.87;61.65;102660.56;4839743;28;97202;-69
2022/01/19 02:42:55;;;;;;;1999.90;999.90;;;;;;;-0.89;61.70;102662.13;4842446;28;97157;-70
2022/01/19 02:50:55;;;;;;;1999.90;999.90;;;;;;;-0.98;62.03;102636.03;4843200;28;99264;-70
2022/01/19 02:53:25;;;;;;;1999.90;999.90;;;;;;;-1.06;61.78;102629.13;4839974;28;99068;-67
2022/01/19 02:55:53;;;;;;;1999.90;999.90;;;;;;;-1.07;61.61;102629.00;4842525;28;99041;-69
2022/01/19 02:58:23;;;;;;;1999.90;999.90;;;;;;;-1.07;61.77;102618.53;4841405;28;98019;-69
2022/01/19 03:09:10;;;;;;;1999.90;999.90;;;;;;;-1.02;62.08;102596.38;4854970;28;98186;-68
2022/01/19 03:11:37;;;;;;;1999.90;999.90;;;;;;;-1.04;62.04;102593.63;4819370;29;101004;-71
2022/01/19 03:14:08;;;;;;;1999.90;999.90;;;;;;;-1.03;61.92;102592.84;4838346;28;98515;-69
2022/01/19 03:16:36;;;;;;;1999.90;999.90;;;;;;;-1.05;61.90;102580.41;4840253;28;100357;-70
2022/01/19 03:19:07;;;;;;;1999.90;999.90;;;;;;;-1.08;61.74;102581.03;4841890;28;100253;-68
2022/01/19 03:21:35;;;;;;;1999.90;999.90;;;;;;;-1.07;62.13;102563.69;4841784;28;97052;-70
2022/01/19 03:24:04;;;;;;;1999.90;999.90;;;;;;;-1.04;62.13;102548.28;4813033;29;99210;-69
2022/01/19 03:26:34;;;;;;;1999.90;999.90;;;;;;;-1.04;61.98;102548.28;4840537;28;101233;-70
2022/01/19 03:29:23;;;;;;;1999.90;999.90;;;;;;;-1.07;62.01;102553.22;4822763;28;100698;-70
2022/01/19 03:31:51;;;;;;;1999.90;999.90;;;;;;;-1.09;61.71;102532.19;4838056;28;98931;-68
2022/01/19 03:34:20;;;;;;;1999.90;999.90;;;;;;;-1.11;62.22;102522.34;4814535;28;97524;-67
2022/01/19 03:36:53;;;;;;;1999.90;999.90;;;;;;;-1.12;61.54;102516.19;4856506;28;97757;-69
2022/01/19 03:39:21;;;;;;;1999.90;999.90;;;;;;;-1.13;61.84;102503.94;4818251;28;97700;-69
2022/01/19 03:41:50;;;;;;;1999.90;999.90;;;;;;;-1.13;61.64;102510.84;4833150;28;97233;-68
2022/01/19 03:44:18;;;;;;;1999.90;999.90;;;;;;;-1.16;61.54;102501.00;4830785;28;97845;-70
2022/01/19 03:46:55;;;;;;;1999.90;999.90;;;;;;;-1.15;62.00;102499.31;4839948;28;97803;-70
2022/01/19 03:49:25;;;;;;;1999.90;999.90;;;;;;;-1.17;61.56;102511.31;4843455;28;98257;-69
2022/01/19 03:51:58;;;;;;;1999.90;999.90;;;;;;;-1.22;61.74;102515.19;4843673;28;97890;-69
2022/01/19 03:54:28;;;;;;;1999.90;999.90;;;;;;;-1.29;61.79;102515.38;4828791;28;99970;-69
2022/01/19 03:56:57;;;;;;;1999.90;999.90;;;;;;;-1.32;61.93;102520.31;4839519;28;98564;-70
2022/01/19 03:59:25;;;;;;;1999.90;999.90;;;;;;;-1.33;61.95;102505.41;4824264;28;101574;-70
2022/01/19 04:01:54;;;;;;;1999.90;999.90;;;;;;;-1.35;62.63;102509.56;4837896;28;97565;-69
2022/01/19 04:04:36;;;;;;;1999.90;999.90;;;;;;;-1.35;62.16;102497.44;4854312;28;97085;-68
2022/01/19 04:07:24;;;;;;;1999.90;999.90;;;;;;;-1.35;62.12;102489.59;4827508;28;97113;-68
2022/01/19 04:09:52;;;;;;;1999.90;999.90;;;;;;;-1.34;62.03;102482.69;4841393;28;98642;-69
2022/01/19 04:12:41;;;;;;;1999.90;999.90;;;;;;;-1.34;62.15;102469.63;4840133;28;99107;-69
2022/01/19 04:15:09;;;;;;;1999.90;999.90;;;;;;;-1.34;62.29;102474.88;4824597;28;98121;-70
2022/01/19 04:17:42;;;;;;;1999.90;999.90;;;;;;;-1.35;62.21;102466.09;4840661;28;99152;-69
2022/01/19 04:20:11;;;;;;;1999.90;999.90;;;;;;;-1.36;62.24;102461.63;4833364;28;100418;-70
2022/01/19 04:22:39;;;;;;;1999.90;999.90;;;;;;;-1.38;61.53;102457.06;4817385;29;98797;-71
2022/01/19 04:25:08;;;;;;;1999.90;999.90;;;;;;;-1.40;62.19;102451.69;4824381;28;97996;-69
2022/01/19 04:27:38;;;;;;;1999.90;999.90;;;;;;;-1.41;61.76;102441.06;4840243;28;98554;-70
2022/01/19 04:30:09;;;;;;;1999.90;999.90;;;;;;;-1.42;61.82;102434.97;4822063;28;99252;-68
2022/01/19 04:32:49;;;;;;;1999.90;999.90;;;;;;;-1.46;62.21;102431.91;4836604;28;96925;-68
2022/01/19 04:35:21;;;;;;;1999.90;999.90;;;;;;;-1.47;61.61;102425.75;4830255;28;97002;-69
2022/01/19 04:49:11;;;;;;;1999.90;999.90;;;;;;;-1.63;62.34;102414.63;4840557;28;99437;-67
2022/01/19 04:54:46;;;;;;;1999.90;999.90;;;;;;;-1.70;62.30;102403.44;4839794;28;98330;-70
2022/01/19 05:03:22;;;;;;;1999.90;999.90;;;;;;;-1.78;61.80;102400.13;4841856;28;97971;-68
2022/01/19 05:06:00;;;;;;;1999.90;999.90;;;;;;;-1.80;62.45;102392.91;4844549;28;98462;-68
2022/01/19 05:08:47;;;;;;;1999.90;999.90;;;;;;;-1.80;62.46;102391.25;4827682;28;97836;-67
2022/01/19 05:14:01;;;;;;;1999.90;999.90;;;;;;;-1.84;61.84;102383.88;4837993;28;99029;-68
2022/01/19 05:16:32;;;;;;;1999.90;999.90;;;;;;;-1.83;61.79;102382.19;4857363;28;98464;-70
2022/01/19 05:19:00;;;;;;;1999.90;999.90;;;;;;;-1.87;61.54;102383.59;4858766;28;96984;-69
2022/01/19 05:21:29;;;;;;;1999.90;999.90;;;;;;;-1.89;61.80;102390.34;4833933;28;98534;-69
2022/01/19 05:24:04;;;;;;;1999.90;999.90;;;;;;;-1.89;62.23;102395.56;4834767;28;100630;-70
2022/01/19 05:26:35;;;;;;;1999.90;999.90;;;;;;;-1.89;62.47;102386.03;4824981;29;97437;-69
2022/01/19 05:29:03;;;;;;;1999.90;999.90;;;;;;;-1.88;61.92;102387.88;4858360;28;97642;-69
2022/01/19 05:31:33;;;;;;;1999.90;999.90;;;;;;;-1.87;62.18;102381.00;4817166;29;99085;-69
2022/01/19 05:34:01;;;;;;;1999.90;999.90;;;;;;;-1.91;62.53;102381.47;4832990;28;97081;-69
2022/01/19 05:36:37;;;;;;;1999.90;999.90;;;;;;;-1.95;61.92;102375.03;4835099;28;96946;-70
2022/01/19 05:39:20;;;;;;;1999.90;999.90;;;;;;;-1.96;62.54;102365.34;4842288;28;97485;-70
2022/01/19 05:42:17;;;;;;;1999.90;999.90;;;;;;;-1.97;61.96;102360.91;4832970;28;98077;-70
2022/01/19 05:44:48;;;;;;;1999.90;999.90;;;;;;;-1.99;62.09;102352.03;4833523;28;98896;-69
2022/01/19 05:47:20;;;;;;;1999.90;999.90;;;;;;;-2.03;61.91;102347.28;4826688;28;99422;-69
2022/01/19 05:49:48;;;;;;;1999.90;999.90;;;;;;;-2.06;61.67;102351.28;4855738;28;97899;-69
2022/01/19 05:52:17;;;;;;;1999.90;999.90;;;;;;;-2.10;62.55;102341.31;4838337;28;99466;-69
2022/01/19 05:54:45;;;;;;;1999.90;999.90;;;;;;;-2.12;61.70;102338.56;4843785;28;98412;-70
2022/01/19 05:57:12;;;;;;;1999.90;999.90;;;;;;;-2.15;62.46;102333.06;4842230;28;98065;-71
2022/01/19 05:59:44;;;;;;;1999.90;999.90;;;;;;;-2.15;62.37;102342.59;4844813;28;96987;-70
2022/01/19 06:02:12;;;;;;;1999.90;999.90;;;;;;;-2.19;62.24;102332.59;4836426;28;99822;-70
2022/01/19 06:04:41;;;;;;;1999.90;999.90;;;;;;;-2.24;62.06;102332.16;4824389;29;99340;-70
2022/01/19 06:07:31;;;;;;;1999.90;999.90;;;;;;;-2.26;61.74;102325.88;4837508;28;97320;-70
2022/01/19 06:13:07;;;;;;;1999.90;999.90;;;;;;;-2.32;62.15;102293.06;4841122;28;98577;-71
2022/01/19 06:15:35;;;;;;;1999.90;999.90;;;;;;;-2.34;62.59;102286.78;4842428;28;98466;-70
2022/01/19 06:18:03;;;;;;;1999.90;999.90;;;;;;;-2.39;62.31;102273.31;4841076;28;97003;-69
2022/01/19 06:20:32;;;;;;;1999.90;999.90;;;;;;;-2.41;62.04;102274.84;4841407;28;97131;-67
2022/01/19 06:23:00;;;;;;;1999.90;999.90;;;;;;;-2.44;62.55;102264.16;4817062;29;99435;-69
2022/01/19 06:25:27;;;;;;;1999.90;999.90;;;;;;;-2.47;62.14;102257.72;4831337;28;98960;-70
2022/01/19 06:27:55;;;;;;;1999.90;999.90;;;;;;;-2.50;62.53;102260.94;4819333;29;97305;-70
2022/01/19 06:30:23;;;;;;;1999.90;999.90;;;;;;;-2.51;62.04;102261.69;4839782;28;97066;-69
2022/01/19 06:32:51;;;;;;;1999.90;999.90;;;;;;;-2.53;62.11;102255.44;4833426;28;97912;-69
2022/01/19 06:35:21;;;;;;;1999.90;999.90;;;;;;;-2.58;62.38;102243.63;4828650;28;99624;-69
2022/01/19 06:38:08;;;;;;;1999.90;999.90;;;;;;;-2.60;62.11;102234.75;4842014;28;97434;-70
2022/01/19 06:40:52;;;;;;;1999.90;999.90;;;;;;;-2.64;62.06;102219.63;4856256;28;97414;-69
2022/01/19 06:43:20;;;;;;;1999.90;999.90;;;;;;;-2.69;62.90;102217.34;4831115;28;97742;-69
2022/01/19 06:45:48;;;;;;;1999.90;999.90;;;;;;;-2.69;62.16;102207.81;4840660;28;97815;-70
2022/01/19 06:48:16;;;;;;;1999.90;999.90;;;;;;;-2.69;62.56;102204.31;4841298;28;97362;-69
2022/01/19 06:50:43;;;;;;;1999.90;999.90;;;;;;;-2.69;62.84;102192.19;4843134;28;98926;-67
2022/01/19 06:53:17;;;;;;;1999.90;999.90;;;;;;;-2.71;62.40;102185.94;4824826;28;98447;-69
2022/01/19 06:55:57;;;;;;;1999.90;999.90;;;;;;;-2.73;62.42;102177.06;4839279;28;100380;-69
2022/01/19 06:58:25;;;;;;;1999.90;999.90;;;;;;;-2.75;62.44;102172.44;4841745;28;96933;-71
2022/01/19 07:01:03;;;;;;;1999.90;999.90;;;;;;;-2.77;62.66;102169.72;4817747;29;96789;-69
2022/01/19 07:03:55;;;;;;;1999.90;999.90;;;;;;;-2.80;62.91;102158.97;4852858;28;98083;-70
2022/01/19 07:06:25;;;;;;;1999.90;999.90;;;;;;;-2.81;62.71;102149.34;4816362;28;98790;-68
2022/01/19 07:09:17;;;;;;;1999.90;999.90;;;;;;;-2.84;62.36;102143.84;4831810;28;99461;-68
2022/01/19 07:11:55;;;;;;;1999.90;999.90;;;;;;;-2.85;62.28;102142.00;4835566;28;97694;-69
2022/01/19 07:14:23;;;;;;;1999.90;999.90;;;;;;;-2.86;62.73;102143.72;4825990;28;100017;-67
2022/01/19 07:16:55;;;;;;;1999.90;999.90;;;;;;;-2.85;62.06;102131.56;4842494;28;100388;-69
2022/01/19 07:19:23;;;;;;;1999.90;999.90;;;;;;;-2.86;62.68;102120.25;4831621;28;98549;-69
2022/01/19 07:21:51;;;;;;;1999.90;999.90;;;;;;;-2.85;62.92;102121.16;4837930;28;97003;-69
2022/01/19 07:24:20;;;;;;;1999.90;999.90;;;;;;;-2.88;62.21;102118.28;4823906;28;100997;-71
2022/01/19 07:26:48;;;;;;;1999.90;999.90;;;;;;;-2.89;62.61;102114.75;4838900;28;97300;-70
2022/01/19 07:29:17;;;;;;;1999.90;999.90;;;;;;;-2.90;62.83;102123.34;4828617;28;96988;-70
2022/01/19 07:31:55;;;;;;;1999.90;999.90;;;;;;;-2.91;62.42;102125.81;4831501;28;98004;-70
2022/01/19 07:34:23;;;;;;;1999.90;999.90;;;;;;;-2.94;62.53;102122.88;4825953;28;99693;-67
2022/01/19 07:36:51;;;;;;;1999.90;999.90;;;;;;;-2.98;62.42;102123.34;4837971;28;97945;-68
2022/01/19 07:39:20;;;;;;;1999.90;999.90;;;;;;;-2.99;62.84;102114.66;4842445;28;98119;-68
2022/01/19 07:41:50;;;;;;;1999.90;999.90;;;;;;;-2.99;63.07;102113.72;4840404;28;98483;-68
2022/01/19 07:44:56;;;;;;;1999.90;999.90;;;;;;;-2.99;62.45;102099.03;4838792;28;98851;-70
2022/01/19 07:47:28;;;;;;;1999.90;999.90;;;;;;;-2.97;62.93;102094.88;4805942;28;99093;-68
2022/01/19 07:50:11;;;;;;;1999.90;999.90;;;;;;;-2.97;62.81;102089.69;4816301;28;99081;-68
2022/01/19 07:53:00;;;;;;;1999.90;999.90;;;;;;;-2.95;62.36;102075.09;4815599;29;98636;-68
2022/01/19 07:55:45;;;;;;;1999.90;999.90;;;;;;;-2.93;63.05;102067.44;4855648;28;98913;-69
2022/01/19 07:58:40;;;;;;;1999.90;999.90;;;;;;;-2.92;62.80;102062.38;4840984;28;97720;-71
2022/01/19 08:01:16;;;;;;;1999.90;999.90;;;;;;;-2.90;62.38;102059.91;4832915;28;97262;-68
2022/01/19 08:03:53;;;;;;;1999.90;999.90;;;;;;;-2.91;63.02;102047.69;4855971;28;99564;-69
2022/01/19 08:06:26;;;;;;;1999.90;999.90;;;;;;;-2.91;62.21;102048.56;4836033;28;100856;-71
2022/01/19 08:08:55;;;;;;;1999.90;999.90;;;;;;;-2.85;62.27;102037.81;4837182;28;97547;-72
2022/01/19 08:11:25;;;;;;;1999.90;999.90;;;;;;;-2.89;62.53;102048.72;4838431;28;97522;-69
2022/01/19 08:14:13;;;;;;;1999.90;999.90;;;;;;;-2.91;62.79;102040.75;4829790;28;97718;-69
2022/01/19 08:16:41;;;;;;;1999.90;999.90;;;;;;;-2.90;62.43;102040.00;4828511;28;98120;-70
2022/01/19 08:19:10;;;;;;;1999.90;999.90;;;;;;;-2.87;62.54;102031.53;4837241;28;99103;-70
2022/01/19 08:21:37;;;;;;;1999.90;999.90;;;;;;;-2.85;62.70;102030.00;4839242;28;98359;-68
2022/01/19 08:24:08;;;;;;;1999.90;999.90;;;;;;;-2.82;62.50;102022.50;4821002;28;98361;-70
2022/01/19 08:26:38;;;;;;;1999.90;999.90;;;;;;;-2.79;62.67;102037.47;4837931;28;99792;-69
2022/01/19 08:29:10;;;;;;;1999.90;999.90;;;;;;;-2.88;62.73;102042.75;4856064;28;100083;-69
2022/01/19 08:31:38;;;;;;;1999.90;999.90;;;;;;;-2.92;63.36;102038.00;4830556;29;99292;-69
2022/01/19 08:34:09;;;;;;;1999.90;999.90;;;;;;;-2.95;62.74;102036.03;4842171;28;96811;-70
2022/01/19 08:37:03;;;;;;;1999.90;999.90;;;;;;;-2.91;62.47;102032.94;4835970;28;99509;-69
2022/01/19 08:39:45;;;;;;;1999.90;999.90;;;;;;;-2.91;63.30;102047.69;4842343;28;98833;-69
2022/01/19 08:42:15;;;;;;;1999.90;999.90;;;;;;;-2.94;63.17;102036.94;4837265;29;97991;-69
2022/01/19 08:44:43;;;;;;;1999.90;999.90;;;;;;;-2.95;63.20;102041.22;4846915;28;97457;-69
2022/01/19 08:47:21;;;;;;;1999.90;999.90;;;;;;;-2.98;63.66;102025.34;4820309;29;99616;-71
2022/01/19 08:50:25;;;;;;;1999.90;999.90;;;;;;;-2.99;62.80;102033.94;4842709;28;100894;-69
2022/01/19 08:53:05;;;;;;;1999.90;999.90;;;;;;;-3.01;63.25;102018.91;4825437;29;98437;-69
2022/01/19 08:55:41;;;;;;;1999.90;999.90;;;;;;;-2.99;63.13;102022.59;4838851;28;98809;-69
2022/01/19 08:58:13;;;;;;;1999.90;999.90;;;;;;;-2.95;63.65;102024.72;4844269;28;98985;-69
2022/01/19 09:00:42;;;;;;;1999.90;999.90;;;;;;;-2.89;62.66;102015.78;4844496;28;99073;-68
2022/01/19 09:03:10;;;;;;;1999.90;999.90;;;;;;;-2.92;63.93;102015.50;4833460;28;98894;-69
2022/01/19 09:05:38;;;;;;;1999.90;999.90;;;;;;;-2.87;63.52;102008.09;4831214;28;98021;-69
2022/01/19 09:08:06;;;;;;;1999.90;999.90;;;;;;;-2.81;63.62;102003.47;4838543;28;98314;-67
2022/01/19 09:10:34;;;;;;;1999.90;999.90;;;;;;;-2.79;63.40;101991.53;4854014;28;100789;-70
2022/01/19 09:13:03;;;;;;;1999.90;999.90;;;;;;;-2.71;63.07;101994.84;4831431;28;97850;-67
2022/01/19 09:15:32;;;;;;;1999.90;999.90;;;;;;;-2.68;63.33;101983.03;4839021;28;97526;-68
2022/01/19 09:18:00;;;;;;;1999.90;999.90;;;;;;;-2.61;62.62;101990.63;4836596;28;100145;-71
2022/01/19 09:20:28;;;;;;;1999.90;999.90;;;;;;;-2.59;62.72;101989.06;4843140;28;97810;-69
2022/01/19 09:22:55;;;;;;;1999.90;999.90;;;;;;;-2.54;62.90;101981.66;4837064;29;99606;-70
2022/01/19 09:25:23;;;;;;;1999.90;999.90;;;;;;;-2.45;63.25;101980.81;4834865;28;97390;-70
2022/01/19 09:27:51;;;;;;;1999.90;999.90;;;;;;;-2.37;62.97;101986.75;4842318;28;98378;-71
2022/01/19 09:30:21;;;;;;;1999.90;999.90;;;;;;;-2.31;62.25;101972.56;4834669;28;99110;-69
2022/01/19 09:33:05;;;;;;;1999.90;999.90;;;;;;;-2.26;62.39;101973.94;4833614;28;98550;-68
2022/01/19 09:35:49;;;;;;;1999.90;999.90;;;;;;;-2.17;62.92;101974.78;4841479;28;98331;-71
2022/01/19 09:38:17;;;;;;;1999.90;999.90;;;;;;;-2.13;61.89;101971.69;4836280;28;102126;-70
2022/01/19 09:40:45;;;;;;;1999.90;999.90;;;;;;;-2.06;61.86;101960.13;4840171;28;97567;-69
2022/01/19 09:43:13;;;;;;;1999.90;999.90;;;;;;;-2.00;61.86;101948.53;4821306;28;96763;-71
2022/01/19 09:45:44;;;;;;;1999.90;999.90;;;;;;;-1.94;62.20;101943.88;4840321;28;98210;-69
2022/01/19 09:48:14;;;;;;;1999.90;999.90;;;;;;;-1.89;62.11;101926.94;4836095;28;97218;-69
2022/01/19 09:50:42;;;;;;;1999.90;999.90;;;;;;;-1.83;62.24;101918.72;4844470;28;98781;-70
2022/01/19 09:53:10;;;;;;;1999.90;999.90;;;;;;;-1.77;61.37;101913.13;4841492;28;97273;-70
2022/01/19 09:55:39;;;;;;;1999.90;999.90;;;;;;;-1.73;62.31;101916.16;4844570;28;96882;-69
2022/01/19 09:58:08;;;;;;;1999.90;999.90;;;;;;;-1.69;61.40;101922.56;4849312;28;99037;-70
2022/01/19 10:00:36;;;;;;;1999.90;999.90;;;;;;;-1.67;62.21;101914.09;4841794;28;99238;-68
2022/01/19 10:03:19;;;;;;;1999.90;999.90;;;;;;;-1.63;61.72;101915.28;4840313;28;96953;-70
2022/01/19 10:06:03;;;;;;;1999.90;999.90;;;;;;;-1.59;61.25;101917.34;4845855;28;97640;-69
2022/01/19 10:08:33;;;;;;;1999.90;999.90;;;;;;;-1.57;61.46;101900.13;4846765;28;97819;-69
2022/01/19 10:11:12;;;;;;;1999.90;999.90;;;;;;;-1.54;61.97;101895.22;4844176;28;98984;-69
2022/01/19 10:19:21;;;;;;;1999.90;999.90;;;;;;;-1.49;61.60;101900.06;4843183;28;98676;-68
2022/01/19 10:21:56;;;;;;;1999.90;999.90;;;;;;;-1.48;61.36;101901.88;4843986;28;100063;-69
2022/01/19 10:24:46;;;;;;;1999.90;999.90;;;;;;;-1.45;61.56;101909.94;4842610;28;96875;-71
2022/01/19 10:27:27;;;;;;;1999.90;999.90;;;;;;;-1.41;61.65;101919.88;4840758;28;97487;-70
2022/01/19 10:29:58;;;;;;;1999.90;999.90;;;;;;;-1.38;61.13;101922.78;4836009;28;99258;-70
2022/01/19 10:32:26;;;;;;;1999.90;999.90;;;;;;;-1.33;60.97;101917.94;4839549;28;97876;-70
2022/01/19 10:34:58;;;;;;;1999.90;999.90;;;;;;;-1.00;60.08;101916.53;4831909;28;97466;-70
2022/01/19 10:37:27;;;;;;;1999.90;999.90;;;;;;;-1.14;60.65;101926.59;4843064;28;96853;-70
2022/01/19 10:40:00;;;;;;;1999.90;999.90;;;;;;;-1.17;60.47;101919.38;4842769;28;98821;-70
2022/01/19 10:42:31;;;;;;;1999.90;999.90;;;;;;;-1.20;60.95;101920.81;4843196;28;99506;-70
2022/01/19 10:45:01;;;;;;;1999.90;999.90;;;;;;;-1.21;60.82;101919.91;4816084;29;97309;-71
2022/01/19 10:47:43;;;;;;;1999.90;999.90;;;;;;;-1.26;60.46;101909.84;4842355;28;97260;-69
2022/01/19 10:50:14;;;;;;;1999.90;999.90;;;;;;;-1.31;60.67;101905.94;4839663;28;99042;-68
2022/01/19 10:52:43;;;;;;;1999.90;999.90;;;;;;;-1.33;60.67;101897.06;4854798;28;99369;-69
2022/01/19 10:55:12;;;;;;;1999.90;999.90;;;;;;;-1.35;60.69;101882.94;4859062;28;97393;-70
2022/01/19 10:57:42;;;;;;;1999.90;999.90;;;;;;;-1.37;60.55;101875.00;4843875;28;97112;-69
2022/01/19 11:00:22;;;;;;;1999.90;999.90;;;;;;;-1.38;60.43;101873.19;4835919;28;99803;-71
2022/01/19 11:02:51;;;;;;;1999.90;999.90;;;;;;;-1.36;60.68;101857.66;4841870;28;99406;-69
2022/01/19 11:05:42;;;;;;;1999.90;999.90;;;;;;;-1.32;60.46;101846.69;4843565;28;96922;-70
2022/01/19 11:08:10;;;;;;;1999.90;999.90;;;;;;;-1.24;60.40;101851.75;4844818;28;96908;-70
2022/01/19 11:10:38;;;;;;;1999.90;999.90;;;;;;;-1.22;60.64;101838.84;4834039;28;99764;-71
2022/01/19 11:13:13;;;;;;;1999.90;999.90;;;;;;;-1.22;60.70;101831.91;4840200;28;98856;-70
2022/01/19 11:15:41;;;;;;;1999.90;999.90;;;;;;;-1.18;60.52;101825.25;4845259;28;97255;-69
2022/01/19 11:18:09;;;;;;;1999.90;999.90;;;;;;;-1.16;60.43;101805.41;4847121;28;96930;-71
2022/01/19 11:20:44;;;;;;;1999.90;999.90;;;;;;;-1.15;60.44;101800.31;4845581;28;97789;-69
2022/01/19 11:23:23;;;;;;;1999.90;999.90;;;;;;;-1.16;60.57;101803.69;4844625;28;97793;-71
2022/01/19 11:25:54;;;;;;;1999.90;999.90;;;;;;;-1.12;60.75;101804.84;4843773;28;96796;-70
2022/01/19 11:28:33;;;;;;;1999.90;999.90;;;;;;;-1.15;60.43;101795.09;4858953;28;97602;-70
2022/01/19 11:31:05;;;;;;;1999.90;999.90;;;;;;;-1.11;60.53;101791.03;4846012;28;97651;-69
2022/01/19 11:33:33;;;;;;;1999.90;999.90;;;;;;;-1.07;60.89;101785.28;4848802;28;99536;-69
2022/01/19 11:36:05;;;;;;;1999.90;999.90;;;;;;;-1.07;60.84;101787.91;4846347;28;96866;-69
2022/01/19 11:38:36;;;;;;;1999.90;999.90;;;;;;;-1.05;60.04;101791.56;4860031;28;96808;-68
2022/01/19 11:41:43;;;;;;;1999.90;999.90;;;;;;;-1.06;60.58;101798.47;4845394;28;100518;-70
2022/01/19 11:44:15;;;;;;;1999.90;999.90;;;;;;;-1.02;60.60;101791.78;4841116;28;99717;-69
2022/01/19 11:46:45;;;;;;;1999.90;999.90;;;;;;;-1.03;60.81;101769.09;4849185;28;96967;-69
2022/01/19 11:49:16;;;;;;;1999.90;999.90;;;;;;;-1.03;60.30;101774.31;4845101;28;97501;-68
2022/01/19 11:51:48;;;;;;;1999.90;999.90;;;;;;;-1.02;60.30;101761.38;4836923;28;98073;-70
2022/01/19 11:54:19;;;;;;;1999.90;999.90;;;;;;;-0.98;60.83;101752.09;4843397;28;97084;-68
2022/01/19 11:57:06;;;;;;;1999.90;999.90;;;;;;;-0.99;60.05;101734.56;4855350;28;97779;-69
2022/01/19 11:59:55;;;;;;;1999.90;999.90;;;;;;;-0.98;60.33;101732.13;4850158;28;97197;-70
2022/01/19 12:02:36;;;;;;;1999.90;999.90;;;;;;;-0.95;60.57;101726.22;4855195;28;100039;-70
2022/01/19 12:05:27;;;;;;;1999.90;999.90;;;;;;;-0.91;60.10;101729.22;4833249;28;96951;-70
2022/01/19 12:07:59;;;;;;;1999.90;999.90;;;;;;;-0.91;60.60;101717.84;4842446;28;99237;-69
2022/01/19 12:10:47;;;;;;;1999.90;999.90;;;;;;;-0.89;60.16;101711.03;4856863;28;97533;-69
2022/01/19 12:13:40;;;;;;;1999.90;999.90;;;;;;;-0.90;60.39;101694.44;4839266;28;98825;-69
2022/01/19 12:16:13;;;;;;;1999.90;999.90;;;;;;;-0.87;60.36;101689.47;4839598;28;98204;-69
2022/01/19 12:18:47;;;;;;;1999.90;999.90;;;;;;;-0.86;60.28;101678.25;4838434;28;96863;-69
2022/01/19 12:21:36;;;;;;;1999.90;999.90;;;;;;;-0.79;60.56;101669.19;4833943;28;98899;-70